Yamato — JD2252 — position and weather

sailwx.info

Track history (hours):
 
Tides and Currents Weather Stations Pressure Air Temp Water Temp Dewpoint Dewpoint Depression Visibility Wind Speed Wind Dir Waves Ship Positions

Yamato

Last reported at 2017-Dec-11 17:00 UTC. Time now 2017-Dec-13 07:16 UTC.
Position N 35°27' E 139°40'.

Length 40 m; draft 3.6 m.

Type: Tug. MMSI: 431101141.

Date/timePositionNaut miles runAvg speedWind from/ knotsBaromVisibWave heightAir tempDewpointWater temp
2017-Dec-11 17:00N 35°27' E 139°40'0 0.0
2017-Dec-11 16:30N 35°27' E 139°40'0 0.0
2017-Dec-11 16:00N 35°27' E 139°40'0 0.0
2017-Dec-11 15:31N 35°27' E 139°40'0 0.0
2017-Dec-11 15:00N 35°27' E 139°40'0 0.0
2017-Dec-11 14:31N 35°27' E 139°40'0 0.0
2017-Dec-11 14:00N 35°27' E 139°40'0 0.0
2017-Dec-11 13:30N 35°27' E 139°40'0 0.0
2017-Dec-11 13:01N 35°27' E 139°40'0 0.0
2017-Dec-11 12:30N 35°27' E 139°40'0 0.0
2017-Dec-11 12:00N 35°27' E 139°40'0 0.0
2017-Dec-11 11:30N 35°27' E 139°40'0 0.0
2017-Dec-11 11:00N 35°27' E 139°40'0 0.0
2017-Dec-11 10:30N 35°27' E 139°40'2 4.9
2017-Dec-11 10:00N 35°25' E 139°42'2 3.3
2017-Dec-11 09:31N 35°24' E 139°41'1 1.0
2017-Dec-11 09:01N 35°23' E 139°41'1 2.5
2017-Dec-11 08:30N 35°23' E 139°42'3 5.5
2017-Dec-11 08:01N 35°25' E 139°42'3 5.5
2017-Dec-11 07:31N 35°27' E 139°40'0 0.0
2017-Dec-11 07:00N 35°27' E 139°40'0 0.0
2017-Dec-11 06:30N 35°27' E 139°40'0 0.0
2017-Dec-11 06:01N 35°27' E 139°40'0 0.0
2017-Dec-11 05:30N 35°27' E 139°40'1 1.5
2017-Dec-11 05:00N 35°28' E 139°40'1 1.7
2017-Dec-11 04:30N 35°28' E 139°41'0 1.0
2017-Dec-11 04:00N 35°28' E 139°41'1 2.6
2017-Dec-11 03:30N 35°28' E 139°43'1 1.8
2017-Dec-11 03:00N 35°28' E 139°44'0 0.0
2017-Dec-11 02:30N 35°28' E 139°44'0 0.0
2017-Dec-11 02:00N 35°28' E 139°44'0 0.0
2017-Dec-11 01:30N 35°28' E 139°44'0 0.0
2017-Dec-11 01:00N 35°28' E 139°44'0 0.0
2017-Dec-11 00:29N 35°28' E 139°44'0 0.0
2017-Dec-10 23:59N 35°28' E 139°44'0 0.0
2017-Dec-10 23:30N 35°28' E 139°44'2 4.8
2017-Dec-10 23:00N 35°30' E 139°46'0 0.6
2017-Dec-10 22:30N 35°30' E 139°46'1 2.1
2017-Dec-10 22:00N 35°29' E 139°48'2 4.3
2017-Dec-10 21:30N 35°28' E 139°46'4 8.0
2017-Dec-10 21:00N 35°27' E 139°41'1 2.5
2017-Dec-10 20:30N 35°27' E 139°40'0 0.0
2017-Dec-10 20:00N 35°27' E 139°40'0 0.0
2017-Dec-10 19:31N 35°27' E 139°40'0 0.0
2017-Dec-10 19:01N 35°27' E 139°40'0 0.0
2017-Dec-10 18:30N 35°27' E 139°40'0 0.0
2017-Dec-10 18:00N 35°27' E 139°40'0 0.0
2017-Dec-10 17:30N 35°27' E 139°40'0 0.0
2017-Dec-10 17:00N 35°27' E 139°40'0 0.0
2017-Dec-10 16:30N 35°27' E 139°40'0 0.0
2017-Dec-10 16:00N 35°27' E 139°40'0 0.0
2017-Dec-10 15:31N 35°27' E 139°40'0 0.0
2017-Dec-10 15:01N 35°27' E 139°40'0 0.0
2017-Dec-10 14:30N 35°27' E 139°40'0 0.0
2017-Dec-10 13:59N 35°27' E 139°40'0 0.0
2017-Dec-10 13:30N 35°27' E 139°40'0 0.0
2017-Dec-10 13:00N 35°27' E 139°40'0 0.0
2017-Dec-10 12:31N 35°27' E 139°40'0 0.0
2017-Dec-10 12:00N 35°27' E 139°40'0 0.0
2017-Dec-10 11:30N 35°27' E 139°40'0 0.0
2017-Dec-10 11:00N 35°27' E 139°40'0 0.0
2017-Dec-10 10:31N 35°27' E 139°40'0 0.0
2017-Dec-10 10:01N 35°27' E 139°40'1 2.3
2017-Dec-10 09:30N 35°27' E 139°41'1 2.9
2017-Dec-10 09:00N 35°25' E 139°42'0 0.0
2017-Dec-10 08:31N 35°25' E 139°42'0 0.0
2017-Dec-10 08:01N 35°25' E 139°42'2 4.2
2017-Dec-10 07:30N 35°23' E 139°41'1 1.6
2017-Dec-10 07:00N 35°24' E 139°41'1 2.1
2017-Dec-10 06:31N 35°25' E 139°42'3 6.0
2017-Dec-10 06:00N 35°27' E 139°40'0 0.0
2017-Dec-10 05:30N 35°27' E 139°40'0 0.0
2017-Dec-10 05:00N 35°27' E 139°40'0 0.0
2017-Dec-10 04:30N 35°27' E 139°40'0 0.0
2017-Dec-10 04:00N 35°27' E 139°40'3 5.3
2017-Dec-10 03:31N 35°29' E 139°42'3 5.7
2017-Dec-10 03:00N 35°30' E 139°45'0 0.0
2017-Dec-10 02:30N 35°30' E 139°45'0 0.1
2017-Dec-10 02:01N 35°30' E 139°45'2 3.3
2017-Dec-10 01:31N 35°29' E 139°43'1 2.4
2017-Dec-10 01:00N 35°29' E 139°42'3 5.1
2017-Dec-10 00:30N 35°27' E 139°39'0 0.0
2017-Dec-10 00:00N 35°27' E 139°39'0 0.0
2017-Dec-09 23:30N 35°27' E 139°39'0 0.0
2017-Dec-09 23:00N 35°27' E 139°39'0 0.0
2017-Dec-09 22:30N 35°27' E 139°39'0 0.0
2017-Dec-09 22:00N 35°27' E 139°39'0 0.0
2017-Dec-09 21:30N 35°27' E 139°39'0 0.4
2017-Dec-09 21:00N 35°27' E 139°40'0 0.0
2017-Dec-09 20:30N 35°27' E 139°40'0 0.0
2017-Dec-09 20:01N 35°27' E 139°40'0 0.0
2017-Dec-09 19:30N 35°27' E 139°40'0 0.0
2017-Dec-09 19:00N 35°27' E 139°40'0 0.0
2017-Dec-09 18:31N 35°27' E 139°40'0 0.0
2017-Dec-09 18:00N 35°27' E 139°40'0 0.0
2017-Dec-09 17:30N 35°27' E 139°40'0 0.0
2017-Dec-09 17:00N 35°27' E 139°40'0 0.0
2017-Dec-09 16:31N 35°27' E 139°40'0 0.0
2017-Dec-09 16:00N 35°27' E 139°40'0 0.0
2017-Dec-09 15:30N 35°27' E 139°40'0 0.0
2017-Dec-09 15:01N 35°27' E 139°40'0 0.0
2017-Dec-09 14:31N 35°27' E 139°40'0 0.0
2017-Dec-09 14:00N 35°27' E 139°40'0 0.0
2017-Dec-09 13:30N 35°27' E 139°40'0 0.0
2017-Dec-09 13:00N 35°27' E 139°40'0 0.0
2017-Dec-09 12:31N 35°27' E 139°40'0 0.0
2017-Dec-09 12:01N 35°27' E 139°40'0 0.0
2017-Dec-09 11:31N 35°27' E 139°40'0 0.0
2017-Dec-09 11:00N 35°27' E 139°40'0 0.0
2017-Dec-09 10:31N 35°27' E 139°40'0 0.0
2017-Dec-09 10:00N 35°27' E 139°40'1 1.4
2017-Dec-09 09:30N 35°27' E 139°40'1 1.8
2017-Dec-09 09:00N 35°27' E 139°41'1 2.9
2017-Dec-09 08:31N 35°26' E 139°43'1 1.8
2017-Dec-09 08:00N 35°27' E 139°42'0 0.0
2017-Dec-09 07:30N 35°27' E 139°42'0 0.0
2017-Dec-09 07:00N 35°27' E 139°42'0 0.0
2017-Dec-09 06:30N 35°27' E 139°42'3 5.2
2017-Dec-09 06:01N 35°28' E 139°39'0 0.0
2017-Dec-09 05:30N 35°28' E 139°39'1 2.0
2017-Dec-09 05:00N 35°27' E 139°40'0 0.0
2017-Dec-09 04:30N 35°27' E 139°40'0 0.0
2017-Dec-09 04:00N 35°27' E 139°40'0 0.0
2017-Dec-09 03:31N 35°27' E 139°40'0 0.0
2017-Dec-09 03:00N 35°27' E 139°40'0 0.0
2017-Dec-09 02:31N 35°27' E 139°40'0 0.0
2017-Dec-09 02:00N 35°27' E 139°40'0 0.3
2017-Dec-09 01:30N 35°27' E 139°39'0 1.0
2017-Dec-09 01:00N 35°27' E 139°40'3 5.3
2017-Dec-09 00:30N 35°28' E 139°43'0 0.4
2017-Dec-09 00:00N 35°28' E 139°43'3 6.1
2017-Dec-08 23:30N 35°27' E 139°40'0 0.0
2017-Dec-08 23:00N 35°27' E 139°40'0 0.0
2017-Dec-08 22:30N 35°27' E 139°40'0 0.0
2017-Dec-08 22:00N 35°27' E 139°40'0 0.0
2017-Dec-08 21:30N 35°27' E 139°40'0 0.0
2017-Dec-08 21:00N 35°27' E 139°40'0 0.0
2017-Dec-08 20:30N 35°27' E 139°40'0 0.0
2017-Dec-08 20:00N 35°27' E 139°40'0 0.0
2017-Dec-08 19:30N 35°27' E 139°40'0 0.0
2017-Dec-08 19:00N 35°27' E 139°40'0 0.0
2017-Dec-08 18:30N 35°27' E 139°40'0 0.0
2017-Dec-08 18:00N 35°27' E 139°40'0 0.0
2017-Dec-08 17:30N 35°27' E 139°40'0 0.0
2017-Dec-08 17:00N 35°27' E 139°40'0 0.0
2017-Dec-08 16:30N 35°27' E 139°40'0 0.0
2017-Dec-08 16:00N 35°27' E 139°40'0 0.0
2017-Dec-08 15:30N 35°27' E 139°40'0 0.0
2017-Dec-08 15:00N 35°27' E 139°40'0 0.0
2017-Dec-08 14:30N 35°27' E 139°40'0 0.0
2017-Dec-08 14:00N 35°27' E 139°40'0 0.0
2017-Dec-08 13:30N 35°27' E 139°40'0 0.0
2017-Dec-08 13:00N 35°27' E 139°40'0 0.0
2017-Dec-08 12:30N 35°27' E 139°40'0 0.0
2017-Dec-08 12:00N 35°27' E 139°40'0 0.0
2017-Dec-08 11:30N 35°27' E 139°40'0 0.0
2017-Dec-08 11:00N 35°27' E 139°40'0 0.0
2017-Dec-08 10:30N 35°27' E 139°40'0 0.0
2017-Dec-08 10:00N 35°27' E 139°40'0 0.0
2017-Dec-08 09:30N 35°27' E 139°40'0 0.0
2017-Dec-08 09:00N 35°27' E 139°40'0 0.0
2017-Dec-08 08:30N 35°27' E 139°40'0 0.0
2017-Dec-08 08:00N 35°27' E 139°40'0 0.0
2017-Dec-08 07:30N 35°27' E 139°40'4 8.8
2017-Dec-08 07:00N 35°28' E 139°45'3 5.3
2017-Dec-08 06:30N 35°31' E 139°46'1 1.5
2017-Dec-08 05:59N 35°31' E 139°46'0 0.2
2017-Dec-08 05:30N 35°31' E 139°46'2 2.9
2017-Dec-08 04:59N 35°30' E 139°47'1 2.0
2017-Dec-08 04:30N 35°29' E 139°47'0 0.0
2017-Dec-08 03:58N 35°29' E 139°47'0 0.0
2017-Dec-08 03:30N 35°29' E 139°47'0 0.0
2017-Dec-08 03:00N 35°29' E 139°47'2 4.9
2017-Dec-08 02:30N 35°28' E 139°44'1 1.6
2017-Dec-08 02:00N 35°28' E 139°43'0 0.0
2017-Dec-08 01:30N 35°28' E 139°43'0 0.5
2017-Dec-08 01:00N 35°27' E 139°43'2 4.2
2017-Dec-08 00:30N 35°26' E 139°45'1 2.4
2017-Dec-08 00:00N 35°26' E 139°43'3 6.4
2017-Dec-07 23:30N 35°27' E 139°40'0 0.0
2017-Dec-07 23:00N 35°27' E 139°40'0 0.0
2017-Dec-07 22:30N 35°27' E 139°40'0 0.0
2017-Dec-07 22:00N 35°27' E 139°40'0 0.0
2017-Dec-07 21:30N 35°27' E 139°40'0 0.0
2017-Dec-07 21:00N 35°27' E 139°40'0 0.0
2017-Dec-07 20:30N 35°27' E 139°40'0 0.0
2017-Dec-07 20:00N 35°27' E 139°40'0 0.0
2017-Dec-07 19:30N 35°27' E 139°40'0 0.0
2017-Dec-07 19:00N 35°27' E 139°40'0 0.0
2017-Dec-07 18:30N 35°27' E 139°40'0 0.0
2017-Dec-07 18:00N 35°27' E 139°40'0 0.0
2017-Dec-07 17:30N 35°27' E 139°40'0 0.0
2017-Dec-07 17:00N 35°27' E 139°40'0 0.0
2017-Dec-07 16:30N 35°27' E 139°40'0 0.0
2017-Dec-07 16:00N 35°27' E 139°40'0 0.0
2017-Dec-07 15:30N 35°27' E 139°40'0 0.0
2017-Dec-07 15:01N 35°27' E 139°40'0 0.0
2017-Dec-07 14:30N 35°27' E 139°40'0 0.0
2017-Dec-07 14:00N 35°27' E 139°40'0 0.0
2017-Dec-07 13:31N 35°27' E 139°40'0 0.0
2017-Dec-07 13:00N 35°27' E 139°40'0 0.0
2017-Dec-07 12:30N 35°27' E 139°40'0 0.0
2017-Dec-07 12:00N 35°27' E 139°40'0 0.0
2017-Dec-07 11:30N 35°27' E 139°40'0 0.0
2017-Dec-07 11:00N 35°27' E 139°40'0 0.0
2017-Dec-07 10:30N 35°27' E 139°40'0 0.0
2017-Dec-07 10:00N 35°27' E 139°40'0 0.0
2017-Dec-07 09:30N 35°27' E 139°40'0 0.0
2017-Dec-07 09:00N 35°27' E 139°40'0 0.0
2017-Dec-07 08:30N 35°27' E 139°40'0 0.0
2017-Dec-07 08:00N 35°27' E 139°40'0 0.0
2017-Dec-07 07:30N 35°27' E 139°40'0 0.0
2017-Dec-07 07:00N 35°27' E 139°40'0 0.0
2017-Dec-07 06:30N 35°27' E 139°40'0 0.0
2017-Dec-07 06:00N 35°27' E 139°40'0 0.0
2017-Dec-07 05:30N 35°27' E 139°40'0 0.0
2017-Dec-07 05:00N 35°27' E 139°40'0 0.0
2017-Dec-07 04:30N 35°27' E 139°40'0 0.0
2017-Dec-07 04:00N 35°27' E 139°40'0 0.0
2017-Dec-07 03:30N 35°27' E 139°40'0 0.0
2017-Dec-07 03:00N 35°27' E 139°40'0 0.0
2017-Dec-07 02:30N 35°27' E 139°40'0 0.0
2017-Dec-07 02:00N 35°27' E 139°40'0 0.0
2017-Dec-07 01:30N 35°27' E 139°40'0 0.0
2017-Dec-07 01:00N 35°27' E 139°40'0 0.0
2017-Dec-07 00:30N 35°27' E 139°40'1 2.8
2017-Dec-07 00:00N 35°28' E 139°41'2 3.3
2017-Dec-06 23:30N 35°28' E 139°43'1 2.1
2017-Dec-06 23:00N 35°27' E 139°43'0 0.1
2017-Dec-06 22:30N 35°27' E 139°43'1 1.3
2017-Dec-06 22:00N 35°27' E 139°42'0 0.0
2017-Dec-06 21:30N 35°27' E 139°42'0 0.0
2017-Dec-06 21:00N 35°27' E 139°42'  
2017-Dec-04 10:30N 35°27' E 139°43'1 1.7
2017-Dec-04 10:00N 35°26' E 139°44'3 5.3
2017-Dec-04 09:30N 35°28' E 139°42'0 0.3
2017-Dec-04 09:00N 35°28' E 139°41'0 0.1
2017-Dec-04 08:30N 35°28' E 139°41'1 1.3
2017-Dec-04 08:00N 35°28' E 139°42'0 0.0
2017-Dec-04 07:30N 35°28' E 139°42'1 2.1
2017-Dec-04 07:00N 35°27' E 139°42'1 1.6
2017-Dec-04 06:30N 35°27' E 139°41'1 2.1
2017-Dec-04 06:00N 35°27' E 139°40'0 0.0
2017-Dec-04 05:30N 35°27' E 139°40'0 0.0
2017-Dec-04 05:00N 35°27' E 139°40'0 0.0
2017-Dec-04 04:30N 35°27' E 139°40'0 0.0
2017-Dec-04 04:00N 35°27' E 139°40'0 0.0
2017-Dec-04 03:30N 35°27' E 139°40'0 0.0
2017-Dec-04 03:00N 35°27' E 139°40'0 0.0
2017-Dec-04 02:30N 35°27' E 139°40'0 0.0
2017-Dec-04 02:00N 35°27' E 139°40'0 0.0
2017-Dec-04 01:30N 35°27' E 139°40'0 0.0
2017-Dec-04 01:00N 35°27' E 139°40'0 0.0
2017-Dec-04 00:30N 35°27' E 139°40'0 0.0
2017-Dec-04 00:00N 35°27' E 139°40'0 0.0
2017-Dec-03 23:30N 35°27' E 139°40'0 0.0
2017-Dec-03 23:00N 35°27' E 139°40'0 0.0
2017-Dec-03 22:30N 35°27' E 139°40'0 0.0
2017-Dec-03 22:00N 35°27' E 139°40'0 0.0
2017-Dec-03 21:30N 35°27' E 139°40'0 0.0
2017-Dec-03 21:00N 35°27' E 139°40'0 0.0
2017-Dec-03 20:30N 35°27' E 139°40'0 0.0
2017-Dec-03 20:00N 35°27' E 139°40'0 0.0
2017-Dec-03 19:30N 35°27' E 139°40'0 0.0
2017-Dec-03 19:00N 35°27' E 139°40'0 0.0
2017-Dec-03 18:30N 35°27' E 139°40'0 0.0
2017-Dec-03 18:00N 35°27' E 139°40'0 0.0
2017-Dec-03 17:30N 35°27' E 139°40'0 0.0
2017-Dec-03 17:00N 35°27' E 139°40'0 0.0
2017-Dec-03 16:30N 35°27' E 139°40'0 0.0
2017-Dec-03 16:00N 35°27' E 139°40'0 0.0
2017-Dec-03 15:30N 35°27' E 139°40'0 0.0
2017-Dec-03 15:00N 35°27' E 139°40'0 0.0
2017-Dec-03 14:30N 35°27' E 139°40'0 0.0
2017-Dec-03 14:00N 35°27' E 139°40'0 0.0
2017-Dec-03 13:30N 35°27' E 139°40'0 0.0
2017-Dec-03 13:00N 35°27' E 139°40'0 0.0
2017-Dec-03 12:30N 35°27' E 139°40'0 0.0
2017-Dec-03 12:00N 35°27' E 139°40'0 0.0
2017-Dec-03 11:30N 35°27' E 139°40'0 0.0
2017-Dec-03 11:00N 35°27' E 139°40'0 0.0
2017-Dec-03 10:30N 35°27' E 139°40'0 0.0
2017-Dec-03 10:00N 35°27' E 139°40'0 0.0
2017-Dec-03 09:30N 35°27' E 139°40'0 0.0
2017-Dec-03 09:00N 35°27' E 139°40'0 0.0
2017-Dec-03 08:30N 35°27' E 139°40'0 0.0
2017-Dec-03 08:00N 35°27' E 139°40'2 4.4
2017-Dec-03 07:30N 35°27' E 139°42'4 7.4
2017-Dec-03 07:00N 35°27' E 139°47'0 0.1
2017-Dec-03 06:30N 35°27' E 139°47'3 6.1
2017-Dec-03 06:00N 35°26' E 139°44'3 6.6
2017-Dec-03 05:30N 35°24' E 139°41'1 1.7
2017-Dec-03 05:00N 35°24' E 139°40'2 4.9
2017-Dec-03 04:30N 35°26' E 139°42'2 4.2
2017-Dec-03 04:00N 35°27' E 139°39'0 0.0
2017-Dec-03 03:30N 35°27' E 139°39'0 0.0
2017-Dec-03 03:00N 35°27' E 139°39'0 0.0
2017-Dec-03 02:30N 35°27' E 139°39'1 1.4
2017-Dec-03 02:00N 35°27' E 139°39'4 8.8
2017-Dec-03 01:30N 35°27' E 139°44'4 7.4
2017-Dec-03 01:00N 35°30' E 139°47'1 2.3
2017-Dec-03 00:30N 35°31' E 139°46'0 0.0
2017-Dec-03 00:00N 35°31' E 139°46'2 5.0
2017-Dec-02 23:30N 35°30' E 139°44'5 9.4
2017-Dec-02 23:00N 35°27' E 139°39'0 0.0
2017-Dec-02 22:30N 35°27' E 139°39'0 0.0
2017-Dec-02 22:00N 35°27' E 139°39'0 0.0
2017-Dec-02 21:30N 35°27' E 139°39'0 0.0
2017-Dec-02 21:00N 35°27' E 139°39'0 0.0
2017-Dec-02 20:30N 35°27' E 139°39'0 0.0
2017-Dec-02 20:00N 35°27' E 139°39'0 0.0
2017-Dec-02 19:30N 35°27' E 139°39'0 0.0
2017-Dec-02 19:00N 35°27' E 139°39'0 0.0
2017-Dec-02 18:30N 35°27' E 139°39'0 0.0
2017-Dec-02 18:01N 35°27' E 139°39'0 0.0
2017-Dec-02 17:30N 35°27' E 139°39'0 0.0
2017-Dec-02 17:00N 35°27' E 139°39'0 0.0
2017-Dec-02 16:30N 35°27' E 139°39'0 0.0
2017-Dec-02 16:00N 35°27' E 139°39'0 0.0
2017-Dec-02 15:30N 35°27' E 139°39'0 0.0
2017-Dec-02 15:00N 35°27' E 139°39'0 0.0
2017-Dec-02 14:30N 35°27' E 139°39'0 0.0
2017-Dec-02 14:00N 35°27' E 139°39'0 0.0
2017-Dec-02 13:30N 35°27' E 139°39'0 0.0
2017-Dec-02 13:00N 35°27' E 139°39'0 0.0
2017-Dec-02 12:30N 35°27' E 139°39'0 0.1
2017-Dec-02 12:00N 35°27' E 139°39'0 0.1
2017-Dec-02 11:30N 35°27' E 139°39'0 0.0
2017-Dec-02 11:00N 35°27' E 139°39'0 0.0
2017-Dec-02 10:30N 35°27' E 139°39'0 0.0
2017-Dec-02 10:00N 35°27' E 139°39'0 0.0
2017-Dec-02 09:30N 35°27' E 139°39'0 0.0
2017-Dec-02 09:00N 35°27' E 139°39'0 0.0
2017-Dec-02 08:31N 35°27' E 139°39'0 0.0
2017-Dec-02 08:00N 35°27' E 139°39'0 0.0
2017-Dec-02 07:30N 35°27' E 139°39'0 0.0
2017-Dec-02 07:00N 35°27' E 139°39'0 0.0
2017-Dec-02 06:30N 35°27' E 139°39'0 0.0
2017-Dec-02 06:00N 35°27' E 139°39'0 0.0
2017-Dec-02 05:30N 35°27' E 139°39'0 0.0
2017-Dec-02 05:00N 35°27' E 139°39'0 0.0
2017-Dec-02 04:30N 35°27' E 139°39'0 0.0
2017-Dec-02 04:00N 35°27' E 139°39'0 0.0
2017-Dec-02 03:30N 35°27' E 139°39'0 0.0
2017-Dec-02 03:00N 35°27' E 139°39'0 0.0
2017-Dec-02 02:30N 35°27' E 139°39'0 0.0
2017-Dec-02 02:00N 35°27' E 139°39'0 0.0
2017-Dec-02 01:30N 35°27' E 139°39'0 0.0
2017-Dec-02 01:00N 35°27' E 139°39'0 0.0
2017-Dec-02 00:30N 35°27' E 139°39'0 0.0
2017-Dec-02 00:01N 35°27' E 139°39'0 0.0
2017-Dec-01 23:30N 35°27' E 139°39'0 0.0
2017-Dec-01 23:00N 35°27' E 139°39'0 0.0
2017-Dec-01 22:30N 35°27' E 139°39'0 0.0
2017-Dec-01 22:00N 35°27' E 139°39'0 0.0
2017-Dec-01 21:30N 35°27' E 139°39'0 0.0
2017-Dec-01 21:00N 35°27' E 139°39'0 0.0
2017-Dec-01 20:30N 35°27' E 139°39'0 0.0
2017-Dec-01 20:00N 35°27' E 139°39'0 0.0
2017-Dec-01 19:30N 35°27' E 139°39'0 0.0
2017-Dec-01 19:00N 35°27' E 139°39'0 0.0
2017-Dec-01 18:30N 35°27' E 139°39'0 0.0
2017-Dec-01 18:00N 35°27' E 139°39'0 0.0
2017-Dec-01 17:30N 35°27' E 139°39'0 0.0
2017-Dec-01 17:00N 35°27' E 139°39'  
Track history (hours):
 
Tides and Currents Weather Stations Pressure Air Temp Water Temp Dewpoint Dewpoint Depression Visibility Wind Speed Wind Dir Waves Ship Positions

Yamato

Last reported at 2017-Dec-11 17:00 UTC. Time now 2017-Dec-13 07:16 UTC.
Position N 35°27' E 139°40'.

Length 40 m; draft 3.6 m.

Type: Tug. MMSI: 431101141.

Date/timePositionNaut miles runAvg speedWind from/ knotsBaromVisibWave heightAir tempDewpointWater temp
2017-Dec-11 17:00N 35°27' E 139°40'0 0.0
2017-Dec-11 16:30N 35°27' E 139°40'0 0.0
2017-Dec-11 16:00N 35°27' E 139°40'0 0.0
2017-Dec-11 15:31N 35°27' E 139°40'0 0.0
2017-Dec-11 15:00N 35°27' E 139°40'0 0.0
2017-Dec-11 14:31N 35°27' E 139°40'0 0.0
2017-Dec-11 14:00N 35°27' E 139°40'0 0.0
2017-Dec-11 13:30N 35°27' E 139°40'0 0.0
2017-Dec-11 13:01N 35°27' E 139°40'0 0.0
2017-Dec-11 12:30N 35°27' E 139°40'0 0.0
2017-Dec-11 12:00N 35°27' E 139°40'0 0.0
2017-Dec-11 11:30N 35°27' E 139°40'0 0.0
2017-Dec-11 11:00N 35°27' E 139°40'0 0.0
2017-Dec-11 10:30N 35°27' E 139°40'2 4.9
2017-Dec-11 10:00N 35°25' E 139°42'2 3.3
2017-Dec-11 09:31N 35°24' E 139°41'1 1.0
2017-Dec-11 09:01N 35°23' E 139°41'1 2.5
2017-Dec-11 08:30N 35°23' E 139°42'3 5.5
2017-Dec-11 08:01N 35°25' E 139°42'3 5.5
2017-Dec-11 07:31N 35°27' E 139°40'0 0.0
2017-Dec-11 07:00N 35°27' E 139°40'0 0.0
2017-Dec-11 06:30N 35°27' E 139°40'0 0.0
2017-Dec-11 06:01N 35°27' E 139°40'0 0.0
2017-Dec-11 05:30N 35°27' E 139°40'1 1.5
2017-Dec-11 05:00N 35°28' E 139°40'1 1.7
2017-Dec-11 04:30N 35°28' E 139°41'0 1.0
2017-Dec-11 04:00N 35°28' E 139°41'1 2.6
2017-Dec-11 03:30N 35°28' E 139°43'1 1.8
2017-Dec-11 03:00N 35°28' E 139°44'0 0.0
2017-Dec-11 02:30N 35°28' E 139°44'0 0.0
2017-Dec-11 02:00N 35°28' E 139°44'0 0.0
2017-Dec-11 01:30N 35°28' E 139°44'0 0.0
2017-Dec-11 01:00N 35°28' E 139°44'0 0.0
2017-Dec-11 00:29N 35°28' E 139°44'0 0.0
2017-Dec-10 23:59N 35°28' E 139°44'0 0.0
2017-Dec-10 23:30N 35°28' E 139°44'2 4.8
2017-Dec-10 23:00N 35°30' E 139°46'0 0.6
2017-Dec-10 22:30N 35°30' E 139°46'1 2.1
2017-Dec-10 22:00N 35°29' E 139°48'2 4.3
2017-Dec-10 21:30N 35°28' E 139°46'4 8.0
2017-Dec-10 21:00N 35°27' E 139°41'1 2.5
2017-Dec-10 20:30N 35°27' E 139°40'0 0.0
2017-Dec-10 20:00N 35°27' E 139°40'0 0.0
2017-Dec-10 19:31N 35°27' E 139°40'0 0.0
2017-Dec-10 19:01N 35°27' E 139°40'0 0.0
2017-Dec-10 18:30N 35°27' E 139°40'0 0.0
2017-Dec-10 18:00N 35°27' E 139°40'0 0.0
2017-Dec-10 17:30N 35°27' E 139°40'0 0.0
2017-Dec-10 17:00N 35°27' E 139°40'0 0.0
2017-Dec-10 16:30N 35°27' E 139°40'0 0.0
2017-Dec-10 16:00N 35°27' E 139°40'0 0.0
2017-Dec-10 15:31N 35°27' E 139°40'0 0.0
2017-Dec-10 15:01N 35°27' E 139°40'0 0.0
2017-Dec-10 14:30N 35°27' E 139°40'0 0.0
2017-Dec-10 13:59N 35°27' E 139°40'0 0.0
2017-Dec-10 13:30N 35°27' E 139°40'0 0.0
2017-Dec-10 13:00N 35°27' E 139°40'0 0.0
2017-Dec-10 12:31N 35°27' E 139°40'0 0.0
2017-Dec-10 12:00N 35°27' E 139°40'0 0.0
2017-Dec-10 11:30N 35°27' E 139°40'0 0.0
2017-Dec-10 11:00N 35°27' E 139°40'0 0.0
2017-Dec-10 10:31N 35°27' E 139°40'0 0.0
2017-Dec-10 10:01N 35°27' E 139°40'1 2.3
2017-Dec-10 09:30N 35°27' E 139°41'1 2.9
2017-Dec-10 09:00N 35°25' E 139°42'0 0.0
2017-Dec-10 08:31N 35°25' E 139°42'0 0.0
2017-Dec-10 08:01N 35°25' E 139°42'2 4.2
2017-Dec-10 07:30N 35°23' E 139°41'1 1.6
2017-Dec-10 07:00N 35°24' E 139°41'1 2.1
2017-Dec-10 06:31N 35°25' E 139°42'3 6.0
2017-Dec-10 06:00N 35°27' E 139°40'0 0.0
2017-Dec-10 05:30N 35°27' E 139°40'0 0.0
2017-Dec-10 05:00N 35°27' E 139°40'0 0.0
2017-Dec-10 04:30N 35°27' E 139°40'0 0.0
2017-Dec-10 04:00N 35°27' E 139°40'3 5.3
2017-Dec-10 03:31N 35°29' E 139°42'3 5.7
2017-Dec-10 03:00N 35°30' E 139°45'0 0.0
2017-Dec-10 02:30N 35°30' E 139°45'0 0.1
2017-Dec-10 02:01N 35°30' E 139°45'2 3.3
2017-Dec-10 01:31N 35°29' E 139°43'1 2.4
2017-Dec-10 01:00N 35°29' E 139°42'3 5.1
2017-Dec-10 00:30N 35°27' E 139°39'0 0.0
2017-Dec-10 00:00N 35°27' E 139°39'0 0.0
2017-Dec-09 23:30N 35°27' E 139°39'0 0.0
2017-Dec-09 23:00N 35°27' E 139°39'0 0.0
2017-Dec-09 22:30N 35°27' E 139°39'0 0.0
2017-Dec-09 22:00N 35°27' E 139°39'0 0.0
2017-Dec-09 21:30N 35°27' E 139°39'0 0.4
2017-Dec-09 21:00N 35°27' E 139°40'0 0.0
2017-Dec-09 20:30N 35°27' E 139°40'0 0.0
2017-Dec-09 20:01N 35°27' E 139°40'0 0.0
2017-Dec-09 19:30N 35°27' E 139°40'0 0.0
2017-Dec-09 19:00N 35°27' E 139°40'0 0.0
2017-Dec-09 18:31N 35°27' E 139°40'0 0.0
2017-Dec-09 18:00N 35°27' E 139°40'0 0.0
2017-Dec-09 17:30N 35°27' E 139°40'0 0.0
2017-Dec-09 17:00N 35°27' E 139°40'0 0.0
2017-Dec-09 16:31N 35°27' E 139°40'0 0.0
2017-Dec-09 16:00N 35°27' E 139°40'0 0.0
2017-Dec-09 15:30N 35°27' E 139°40'0 0.0
2017-Dec-09 15:01N 35°27' E 139°40'0 0.0
2017-Dec-09 14:31N 35°27' E 139°40'0 0.0
2017-Dec-09 14:00N 35°27' E 139°40'0 0.0
2017-Dec-09 13:30N 35°27' E 139°40'0 0.0
2017-Dec-09 13:00N 35°27' E 139°40'0 0.0
2017-Dec-09 12:31N 35°27' E 139°40'0 0.0
2017-Dec-09 12:01N 35°27' E 139°40'0 0.0
2017-Dec-09 11:31N 35°27' E 139°40'0 0.0
2017-Dec-09 11:00N 35°27' E 139°40'0 0.0
2017-Dec-09 10:31N 35°27' E 139°40'0 0.0
2017-Dec-09 10:00N 35°27' E 139°40'1 1.4
2017-Dec-09 09:30N 35°27' E 139°40'1 1.8
2017-Dec-09 09:00N 35°27' E 139°41'1 2.9
2017-Dec-09 08:31N 35°26' E 139°43'1 1.8
2017-Dec-09 08:00N 35°27' E 139°42'0 0.0
2017-Dec-09 07:30N 35°27' E 139°42'0 0.0
2017-Dec-09 07:00N 35°27' E 139°42'0 0.0
2017-Dec-09 06:30N 35°27' E 139°42'3 5.2
2017-Dec-09 06:01N 35°28' E 139°39'0 0.0
2017-Dec-09 05:30N 35°28' E 139°39'1 2.0
2017-Dec-09 05:00N 35°27' E 139°40'0 0.0
2017-Dec-09 04:30N 35°27' E 139°40'0 0.0
2017-Dec-09 04:00N 35°27' E 139°40'0 0.0
2017-Dec-09 03:31N 35°27' E 139°40'0 0.0
2017-Dec-09 03:00N 35°27' E 139°40'0 0.0
2017-Dec-09 02:31N 35°27' E 139°40'0 0.0
2017-Dec-09 02:00N 35°27' E 139°40'0 0.3
2017-Dec-09 01:30N 35°27' E 139°39'0 1.0
2017-Dec-09 01:00N 35°27' E 139°40'3 5.3
2017-Dec-09 00:30N 35°28' E 139°43'0 0.4
2017-Dec-09 00:00N 35°28' E 139°43'3 6.1
2017-Dec-08 23:30N 35°27' E 139°40'0 0.0
2017-Dec-08 23:00N 35°27' E 139°40'0 0.0
2017-Dec-08 22:30N 35°27' E 139°40'0 0.0
2017-Dec-08 22:00N 35°27' E 139°40'0 0.0
2017-Dec-08 21:30N 35°27' E 139°40'0 0.0
2017-Dec-08 21:00N 35°27' E 139°40'0 0.0
2017-Dec-08 20:30N 35°27' E 139°40'0 0.0
2017-Dec-08 20:00N 35°27' E 139°40'0 0.0
2017-Dec-08 19:30N 35°27' E 139°40'0 0.0
2017-Dec-08 19:00N 35°27' E 139°40'0 0.0
2017-Dec-08 18:30N 35°27' E 139°40'0 0.0
2017-Dec-08 18:00N 35°27' E 139°40'0 0.0
2017-Dec-08 17:30N 35°27' E 139°40'0 0.0
2017-Dec-08 17:00N 35°27' E 139°40'0 0.0
2017-Dec-08 16:30N 35°27' E 139°40'0 0.0
2017-Dec-08 16:00N 35°27' E 139°40'0 0.0
2017-Dec-08 15:30N 35°27' E 139°40'0 0.0
2017-Dec-08 15:00N 35°27' E 139°40'0 0.0
2017-Dec-08 14:30N 35°27' E 139°40'0 0.0
2017-Dec-08 14:00N 35°27' E 139°40'0 0.0
2017-Dec-08 13:30N 35°27' E 139°40'0 0.0
2017-Dec-08 13:00N 35°27' E 139°40'0 0.0
2017-Dec-08 12:30N 35°27' E 139°40'0 0.0
2017-Dec-08 12:00N 35°27' E 139°40'0 0.0
2017-Dec-08 11:30N 35°27' E 139°40'0 0.0
2017-Dec-08 11:00N 35°27' E 139°40'0 0.0
2017-Dec-08 10:30N 35°27' E 139°40'0 0.0
2017-Dec-08 10:00N 35°27' E 139°40'0 0.0
2017-Dec-08 09:30N 35°27' E 139°40'0 0.0
2017-Dec-08 09:00N 35°27' E 139°40'0 0.0
2017-Dec-08 08:30N 35°27' E 139°40'0 0.0
2017-Dec-08 08:00N 35°27' E 139°40'0 0.0
2017-Dec-08 07:30N 35°27' E 139°40'4 8.8
2017-Dec-08 07:00N 35°28' E 139°45'3 5.3
2017-Dec-08 06:30N 35°31' E 139°46'1 1.5
2017-Dec-08 05:59N 35°31' E 139°46'0 0.2
2017-Dec-08 05:30N 35°31' E 139°46'2 2.9
2017-Dec-08 04:59N 35°30' E 139°47'1 2.0
2017-Dec-08 04:30N 35°29' E 139°47'0 0.0
2017-Dec-08 03:58N 35°29' E 139°47'0 0.0
2017-Dec-08 03:30N 35°29' E 139°47'0 0.0
2017-Dec-08 03:00N 35°29' E 139°47'2 4.9
2017-Dec-08 02:30N 35°28' E 139°44'1 1.6
2017-Dec-08 02:00N 35°28' E 139°43'0 0.0
2017-Dec-08 01:30N 35°28' E 139°43'0 0.5
2017-Dec-08 01:00N 35°27' E 139°43'2 4.2
2017-Dec-08 00:30N 35°26' E 139°45'1 2.4
2017-Dec-08 00:00N 35°26' E 139°43'3 6.4
2017-Dec-07 23:30N 35°27' E 139°40'0 0.0
2017-Dec-07 23:00N 35°27' E 139°40'0 0.0
2017-Dec-07 22:30N 35°27' E 139°40'0 0.0
2017-Dec-07 22:00N 35°27' E 139°40'0 0.0
2017-Dec-07 21:30N 35°27' E 139°40'0 0.0
2017-Dec-07 21:00N 35°27' E 139°40'0 0.0
2017-Dec-07 20:30N 35°27' E 139°40'0 0.0
2017-Dec-07 20:00N 35°27' E 139°40'0 0.0
2017-Dec-07 19:30N 35°27' E 139°40'0 0.0
2017-Dec-07 19:00N 35°27' E 139°40'0 0.0
2017-Dec-07 18:30N 35°27' E 139°40'0 0.0
2017-Dec-07 18:00N 35°27' E 139°40'0 0.0
2017-Dec-07 17:30N 35°27' E 139°40'0 0.0
2017-Dec-07 17:00N 35°27' E 139°40'0 0.0
2017-Dec-07 16:30N 35°27' E 139°40'0 0.0
2017-Dec-07 16:00N 35°27' E 139°40'0 0.0
2017-Dec-07 15:30N 35°27' E 139°40'0 0.0
2017-Dec-07 15:01N 35°27' E 139°40'0 0.0
2017-Dec-07 14:30N 35°27' E 139°40'0 0.0
2017-Dec-07 14:00N 35°27' E 139°40'0 0.0
2017-Dec-07 13:31N 35°27' E 139°40'0 0.0
2017-Dec-07 13:00N 35°27' E 139°40'0 0.0
2017-Dec-07 12:30N 35°27' E 139°40'0 0.0
2017-Dec-07 12:00N 35°27' E 139°40'0 0.0
2017-Dec-07 11:30N 35°27' E 139°40'0 0.0
2017-Dec-07 11:00N 35°27' E 139°40'0 0.0
2017-Dec-07 10:30N 35°27' E 139°40'0 0.0
2017-Dec-07 10:00N 35°27' E 139°40'0 0.0
2017-Dec-07 09:30N 35°27' E 139°40'0 0.0
2017-Dec-07 09:00N 35°27' E 139°40'0 0.0
2017-Dec-07 08:30N 35°27' E 139°40'0 0.0
2017-Dec-07 08:00N 35°27' E 139°40'0 0.0
2017-Dec-07 07:30N 35°27' E 139°40'0 0.0
2017-Dec-07 07:00N 35°27' E 139°40'0 0.0
2017-Dec-07 06:30N 35°27' E 139°40'0 0.0
2017-Dec-07 06:00N 35°27' E 139°40'0 0.0
2017-Dec-07 05:30N 35°27' E 139°40'0 0.0
2017-Dec-07 05:00N 35°27' E 139°40'0 0.0
2017-Dec-07 04:30N 35°27' E 139°40'0 0.0
2017-Dec-07 04:00N 35°27' E 139°40'0 0.0
2017-Dec-07 03:30N 35°27' E 139°40'0 0.0
2017-Dec-07 03:00N 35°27' E 139°40'0 0.0
2017-Dec-07 02:30N 35°27' E 139°40'0 0.0
2017-Dec-07 02:00N 35°27' E 139°40'0 0.0
2017-Dec-07 01:30N 35°27' E 139°40'0 0.0
2017-Dec-07 01:00N 35°27' E 139°40'0 0.0
2017-Dec-07 00:30N 35°27' E 139°40'1 2.8
2017-Dec-07 00:00N 35°28' E 139°41'2 3.3
2017-Dec-06 23:30N 35°28' E 139°43'1 2.1
2017-Dec-06 23:00N 35°27' E 139°43'0 0.1
2017-Dec-06 22:30N 35°27' E 139°43'1 1.3
2017-Dec-06 22:00N 35°27' E 139°42'0 0.0
2017-Dec-06 21:30N 35°27' E 139°42'0 0.0
2017-Dec-06 21:00N 35°27' E 139°42'  
2017-Dec-04 10:30N 35°27' E 139°43'1 1.7
2017-Dec-04 10:00N 35°26' E 139°44'3 5.3
2017-Dec-04 09:30N 35°28' E 139°42'0 0.3
2017-Dec-04 09:00N 35°28' E 139°41'0 0.1
2017-Dec-04 08:30N 35°28' E 139°41'1 1.3
2017-Dec-04 08:00N 35°28' E 139°42'0 0.0
2017-Dec-04 07:30N 35°28' E 139°42'1 2.1
2017-Dec-04 07:00N 35°27' E 139°42'1 1.6
2017-Dec-04 06:30N 35°27' E 139°41'1 2.1
2017-Dec-04 06:00N 35°27' E 139°40'0 0.0
2017-Dec-04 05:30N 35°27' E 139°40'0 0.0
2017-Dec-04 05:00N 35°27' E 139°40'0 0.0
2017-Dec-04 04:30N 35°27' E 139°40'0 0.0
2017-Dec-04 04:00N 35°27' E 139°40'0 0.0
2017-Dec-04 03:30N 35°27' E 139°40'0 0.0
2017-Dec-04 03:00N 35°27' E 139°40'0 0.0
2017-Dec-04 02:30N 35°27' E 139°40'0 0.0
2017-Dec-04 02:00N 35°27' E 139°40'0 0.0
2017-Dec-04 01:30N 35°27' E 139°40'0 0.0
2017-Dec-04 01:00N 35°27' E 139°40'0 0.0
2017-Dec-04 00:30N 35°27' E 139°40'0 0.0
2017-Dec-04 00:00N 35°27' E 139°40'0 0.0
2017-Dec-03 23:30N 35°27' E 139°40'0 0.0
2017-Dec-03 23:00N 35°27' E 139°40'0 0.0
2017-Dec-03 22:30N 35°27' E 139°40'0 0.0
2017-Dec-03 22:00N 35°27' E 139°40'0 0.0
2017-Dec-03 21:30N 35°27' E 139°40'0 0.0
2017-Dec-03 21:00N 35°27' E 139°40'0 0.0
2017-Dec-03 20:30N 35°27' E 139°40'0 0.0
2017-Dec-03 20:00N 35°27' E 139°40'0 0.0
2017-Dec-03 19:30N 35°27' E 139°40'0 0.0
2017-Dec-03 19:00N 35°27' E 139°40'0 0.0
2017-Dec-03 18:30N 35°27' E 139°40'0 0.0
2017-Dec-03 18:00N 35°27' E 139°40'0 0.0
2017-Dec-03 17:30N 35°27' E 139°40'0 0.0
2017-Dec-03 17:00N 35°27' E 139°40'0 0.0
2017-Dec-03 16:30N 35°27' E 139°40'0 0.0
2017-Dec-03 16:00N 35°27' E 139°40'0 0.0
2017-Dec-03 15:30N 35°27' E 139°40'0 0.0
2017-Dec-03 15:00N 35°27' E 139°40'0 0.0
2017-Dec-03 14:30N 35°27' E 139°40'0 0.0
2017-Dec-03 14:00N 35°27' E 139°40'0 0.0
2017-Dec-03 13:30N 35°27' E 139°40'0 0.0
2017-Dec-03 13:00N 35°27' E 139°40'0 0.0
2017-Dec-03 12:30N 35°27' E 139°40'0 0.0
2017-Dec-03 12:00N 35°27' E 139°40'0 0.0
2017-Dec-03 11:30N 35°27' E 139°40'0 0.0
2017-Dec-03 11:00N 35°27' E 139°40'0 0.0
2017-Dec-03 10:30N 35°27' E 139°40'0 0.0
2017-Dec-03 10:00N 35°27' E 139°40'0 0.0
2017-Dec-03 09:30N 35°27' E 139°40'0 0.0
2017-Dec-03 09:00N 35°27' E 139°40'0 0.0
2017-Dec-03 08:30N 35°27' E 139°40'0 0.0
2017-Dec-03 08:00N 35°27' E 139°40'2 4.4
2017-Dec-03 07:30N 35°27' E 139°42'4 7.4
2017-Dec-03 07:00N 35°27' E 139°47'0 0.1
2017-Dec-03 06:30N 35°27' E 139°47'3 6.1
2017-Dec-03 06:00N 35°26' E 139°44'3 6.6
2017-Dec-03 05:30N 35°24' E 139°41'1 1.7
2017-Dec-03 05:00N 35°24' E 139°40'2 4.9
2017-Dec-03 04:30N 35°26' E 139°42'2 4.2
2017-Dec-03 04:00N 35°27' E 139°39'0 0.0
2017-Dec-03 03:30N 35°27' E 139°39'0 0.0
2017-Dec-03 03:00N 35°27' E 139°39'0 0.0
2017-Dec-03 02:30N 35°27' E 139°39'1 1.4
2017-Dec-03 02:00N 35°27' E 139°39'4 8.8
2017-Dec-03 01:30N 35°27' E 139°44'4 7.4
2017-Dec-03 01:00N 35°30' E 139°47'1 2.3
2017-Dec-03 00:30N 35°31' E 139°46'0 0.0
2017-Dec-03 00:00N 35°31' E 139°46'2 5.0
2017-Dec-02 23:30N 35°30' E 139°44'5 9.4
2017-Dec-02 23:00N 35°27' E 139°39'0 0.0
2017-Dec-02 22:30N 35°27' E 139°39'0 0.0
2017-Dec-02 22:00N 35°27' E 139°39'0 0.0
2017-Dec-02 21:30N 35°27' E 139°39'0 0.0
2017-Dec-02 21:00N 35°27' E 139°39'0 0.0
2017-Dec-02 20:30N 35°27' E 139°39'0 0.0
2017-Dec-02 20:00N 35°27' E 139°39'0 0.0
2017-Dec-02 19:30N 35°27' E 139°39'0 0.0
2017-Dec-02 19:00N 35°27' E 139°39'0 0.0
2017-Dec-02 18:30N 35°27' E 139°39'0 0.0
2017-Dec-02 18:01N 35°27' E 139°39'0 0.0
2017-Dec-02 17:30N 35°27' E 139°39'0 0.0
2017-Dec-02 17:00N 35°27' E 139°39'0 0.0
2017-Dec-02 16:30N 35°27' E 139°39'0 0.0
2017-Dec-02 16:00N 35°27' E 139°39'0 0.0
2017-Dec-02 15:30N 35°27' E 139°39'0 0.0
2017-Dec-02 15:00N 35°27' E 139°39'0 0.0
2017-Dec-02 14:30N 35°27' E 139°39'0 0.0
2017-Dec-02 14:00N 35°27' E 139°39'0 0.0
2017-Dec-02 13:30N 35°27' E 139°39'0 0.0
2017-Dec-02 13:00N 35°27' E 139°39'0 0.0
2017-Dec-02 12:30N 35°27' E 139°39'0 0.1
2017-Dec-02 12:00N 35°27' E 139°39'0 0.1
2017-Dec-02 11:30N 35°27' E 139°39'0 0.0
2017-Dec-02 11:00N 35°27' E 139°39'0 0.0
2017-Dec-02 10:30N 35°27' E 139°39'0 0.0
2017-Dec-02 10:00N 35°27' E 139°39'0 0.0
2017-Dec-02 09:30N 35°27' E 139°39'0 0.0
2017-Dec-02 09:00N 35°27' E 139°39'0 0.0
2017-Dec-02 08:31N 35°27' E 139°39'0 0.0
2017-Dec-02 08:00N 35°27' E 139°39'0 0.0
2017-Dec-02 07:30N 35°27' E 139°39'0 0.0
2017-Dec-02 07:00N 35°27' E 139°39'0 0.0
2017-Dec-02 06:30N 35°27' E 139°39'0 0.0
2017-Dec-02 06:00N 35°27' E 139°39'0 0.0
2017-Dec-02 05:30N 35°27' E 139°39'0 0.0
2017-Dec-02 05:00N 35°27' E 139°39'0 0.0
2017-Dec-02 04:30N 35°27' E 139°39'0 0.0
2017-Dec-02 04:00N 35°27' E 139°39'0 0.0
2017-Dec-02 03:30N 35°27' E 139°39'0 0.0
2017-Dec-02 03:00N 35°27' E 139°39'0 0.0
2017-Dec-02 02:30N 35°27' E 139°39'0 0.0
2017-Dec-02 02:00N 35°27' E 139°39'0 0.0
2017-Dec-02 01:30N 35°27' E 139°39'0 0.0
2017-Dec-02 01:00N 35°27' E 139°39'0 0.0
2017-Dec-02 00:30N 35°27' E 139°39'0 0.0
2017-Dec-02 00:01N 35°27' E 139°39'0 0.0
2017-Dec-01 23:30N 35°27' E 139°39'0 0.0
2017-Dec-01 23:00N 35°27' E 139°39'0 0.0
2017-Dec-01 22:30N 35°27' E 139°39'0 0.0
2017-Dec-01 22:00N 35°27' E 139°39'0 0.0
2017-Dec-01 21:30N 35°27' E 139°39'0 0.0
2017-Dec-01 21:00N 35°27' E 139°39'0 0.0
2017-Dec-01 20:30N 35°27' E 139°39'0 0.0
2017-Dec-01 20:00N 35°27' E 139°39'0 0.0
2017-Dec-01 19:30N 35°27' E 139°39'0 0.0
2017-Dec-01 19:00N 35°27' E 139°39'0 0.0
2017-Dec-01 18:30N 35°27' E 139°39'0 0.0
2017-Dec-01 18:00N 35°27' E 139°39'0 0.0
2017-Dec-01 17:30N 35°27' E 139°39'0 0.0
2017-Dec-01 17:00N 35°27' E 139°39'  

Dump ship's entire track history